Alpha, Illinois
Current Conditions -  °F | °C
As of 3:52 PM on Tuesday 21 Oct 2014 (Local Time) from KMLI Reporting Station
Clear Clear  
Wind Chill: 15°   Ceiling: Unl
Heat Index: 15°   Visibility: 10mi
Dew Point:   Wind: 8mph
Humidity: 48%   Direction: 80°E
Pressure: 30.16"   Gusts: NA
Location:  41.19°N, 90.38°W
Report Text: KMLI 212052Z 08007KT 10SM CLR 15/04 A3016 RMK AO2 SLP216 T01500039 56008 $
Loading
Personal Weather Stations






























Interactive Weather Map
Tropical Storm Tracking
New forecast layout! Learn more

10-Day Weather Forecast

Advertisements
Track Severe Weather on mobile